AKST,Max TemperatureF,Mean TemperatureF,Min TemperatureF,Max Dew PointF,MeanDew PointF,Min DewpointF,Max Humidity, Mean Humidity, Min Humidity, Max Sea Level PressureIn, Mean Sea Level PressureIn, Min Sea Level PressureIn, Max VisibilityMiles, Mean VisibilityMiles, Min VisibilityMiles, Max Wind SpeedMPH, Mean Wind SpeedMPH, Max Gust SpeedMPH,PrecipitationIn, CloudCover, Events, WindDirDegrees
2013-1-1,37,35,33,34,34,33,100,97,85,29.15,29.06,29.00,10,6,1,40,24,53,0.16,8,Rain-Snow,83
2013-1-2,36,34,32,34,32,28,100,92,73,29.31,29.25,29.15,10,8,2,28,9,38,0.01,7,Rain-Snow,78
2013-1-3,37,35,33,34,31,28,100,85,68,29.52,29.37,29.25,10,9,2,25,18,37,0.00,5,Snow,86
2013-1-4,37,35,33,34,31,28,100,85,60,29.69,29.63,29.53,10,10,7,20,11,30,0.00,5,Rain,95
2013-1-5,37,34,32,34,33,30,100,98,79,29.59,29.29,29.18,10,5,1,20,9,29,0.31,8,Rain-Snow,57
2013-1-6,36,33,30,34,31,26,100,92,70,29.31,29.13,28.91,10,10,4,17,5,25,0.01,7,Rain-Snow,19
2013-1-7,34,28,19,30,24,17,96,88,70,29.56,29.25,28.94,10,6,1,9,5,,0.03,8,Snow,342
2013-1-8,23,16,10,18,14,9,93,81,64,30.14,29.91,29.60,10,9,2,16,6,23,0.00,5,Snow,279
2013-1-9,33,22,10,32,24,8,100,91,69,30.14,29.89,29.78,10,5,0,20,9,25,0.08,6,Fog-Snow,77
2013-1-10,37,32,28,31,29,25,100,91,73,30.06,29.96,29.77,10,7,1,22,11,36,0.01,8,Snow,132
2013-1-11,37,30,24,34,28,24,100,95,75,30.11,30.01,29.76,10,6,1,23,10,33,0.03,7,Snow,105
2013-1-12,39,33,27,37,33,30,100,83,64,29.94,29.76,29.65,10,9,5,30,24,44,0.24,8,Rain,102
2013-1-13,43,40,37,38,36,35,100,83,68,29.75,29.65,29.47,10,10,5,25,19,38,0.12,7,Rain,99
2013-1-14,43,33,19,37,29,17,100,83,65,30.15,29.71,29.37,10,8,2,29,17,45,0.01,7,Rain-Snow,195
2013-1-15,25,20,15,19,16,10,89,85,77,30.27,30.23,30.15,10,10,10,12,5,16,0.03,5,,355
2013-1-16,25,14,3,25,16,-2,100,87,63,30.14,30.03,29.89,10,6,1,12,5,,0.03,6,Snow,327
2013-1-17,7,2,-2,-2,-6,-8,76,67,45,30.09,29.99,29.88,10,10,10,22,11,31,0.00,1,,296
2013-1-18,30,15,0,22,2,-8,80,74,59,30.14,30.10,30.01,10,10,10,16,9,22,0.00,5,,13
2013-1-19,37,20,3,34,27,23,100,75,56,30.03,29.81,29.58,10,10,6,29,20,41,0.00,8,Rain,87
2013-1-20,39,36,34,33,32,31,85,78,60,29.80,29.74,29.58,10,10,10,32,16,44,0.00,6,,100
2013-1-21,43,40,36,34,30,27,86,70,57,29.81,29.63,29.49,10,10,10,13,7,18,0.00,6,,51
2013-1-22,44,40,34,35,32,30,85,76,67,29.51,29.44,29.36,10,10,10,14,9,18,0.00,8,Rain,27
2013-1-23,36,28,19,28,20,15,85,77,65,29.36,29.30,29.25,10,10,10,13,10,20,0.00,5,,3
2013-1-24,27,22,17,18,15,12,86,77,57,29.58,29.49,29.35,10,10,5,14,10,,0.00,5,,356
2013-1-25,23,10,-5,18,-2,-14,93,68,36,29.88,29.71,29.56,10,10,4,9,5,,0.00,4,Snow,323
2013-1-26,1,-4,-9,-13,-16,-17,71,55,27,30.11,30.00,29.90,10,10,10,12,3,,0.00,0,,324
2013-1-27,1,-5,-11,-16,-18,-21,64,53,25,30.21,30.18,30.12,10,10,10,17,8,22,0.00,0,,355
2013-1-28,26,8,-9,18,4,-19,100,79,46,30.17,29.83,29.52,10,5,0,30,20,43,0.01,6,Fog-Snow,66
2013-1-29,34,14,-5,30,26,18,100,84,57,29.63,29.57,29.50,10,7,0,25,19,34,0.08,8,Fog-Snow,101
2013-1-30,37,34,30,34,32,30,100,88,75,29.70,29.58,29.48,10,9,1,23,11,32,0.12,8,Rain-Snow,117
2013-1-31,36,32,28,36,33,28,100,100,93,29.88,29.83,29.70,10,4,0,12,3,,0.00,7,Fog-Rain,52